Time;durP1;ratioP1;P1;durP2;ratioP2;P2;SDS_P1;SDS_P2;PMS_P1;PMS_P2;Temp;Humidity;BMP_temperature;BMP_pressure;BME280_temperature;BME280_humidity;BME280_pressure;Samples;Min_cycle;Max_cycle;Signal;HPM_P1;HPM_P2
2022/06/19 00:00:06;;;;;;;5.10;2.30;;;;;;;21.55;65.14;99736.00;5080759;28;20452;-73
2022/06/19 00:02:33;;;;;;;3.60;2.50;;;;;;;21.44;65.42;99726.66;5097383;28;20518;-75
2022/06/19 00:05:01;;;;;;;2.60;2.40;;;;;;;20.92;66.84;99712.53;5100928;28;20459;-73
2022/06/19 00:07:28;;;;;;;5.80;2.60;;;;;;;21.03;66.66;99714.50;5080937;28;20487;-72
2022/06/19 00:09:54;;;;;;;3.43;2.80;;;;;;;20.90;67.16;99717.34;5080898;28;20447;-75
2022/06/19 00:12:21;;;;;;;4.50;2.33;;;;;;;20.97;67.31;99698.25;5118109;28;20502;-77
2022/06/19 00:14:48;;;;;;;5.97;3.00;;;;;;;20.96;66.94;99670.25;5121007;28;21059;-76
2022/06/19 00:17:15;;;;;;;3.60;2.60;;;;;;;20.99;66.86;99666.28;5120337;28;20499;-75
2022/06/19 00:19:42;;;;;;;4.50;2.30;;;;;;;20.99;67.00;99677.13;5121960;28;20469;-78
2022/06/19 00:22:11;;;;;;;4.63;2.80;;;;;;;21.08;66.70;99670.34;5121004;28;20473;-78
2022/06/19 00:24:37;;;;;;;5.00;2.90;;;;;;;21.21;66.29;99670.22;5121535;28;20474;-75
2022/06/19 00:27:05;;;;;;;3.90;2.93;;;;;;;21.16;66.45;99682.81;5120690;28;20474;-78
2022/06/19 00:29:32;;;;;;;6.20;2.90;;;;;;;21.03;66.50;99678.34;5120868;28;20967;-77
2022/06/19 00:31:59;;;;;;;4.80;3.17;;;;;;;20.41;68.84;99670.84;5120397;28;20482;-75
2022/06/19 00:34:25;;;;;;;4.07;3.67;;;;;;;20.66;68.27;99676.34;5121337;28;20485;-72
2022/06/19 00:36:53;;;;;;;4.50;2.73;;;;;;;20.74;67.85;99667.09;5120224;28;20497;-75
2022/06/19 00:39:21;;;;;;;3.07;2.77;;;;;;;20.63;68.42;99657.78;5121743;28;20528;-74
2022/06/19 00:41:48;;;;;;;13.67;3.17;;;;;;;20.41;68.92;99654.56;5120358;28;20535;-74
2022/06/19 00:44:17;;;;;;;4.80;3.13;;;;;;;20.47;68.83;99659.13;5120524;28;20472;-75
2022/06/19 00:46:52;;;;;;;3.77;3.43;;;;;;;20.64;68.70;99650.44;5119548;28;20542;-75
2022/06/19 00:49:21;;;;;;;7.40;3.50;;;;;;;20.36;69.42;99650.84;5121419;28;20453;-73
2022/06/19 00:51:53;;;;;;;3.10;2.57;;;;;;;20.69;68.61;99656.06;5120394;28;20516;-74
2022/06/19 00:54:22;;;;;;;4.43;2.90;;;;;;;20.64;68.40;99647.72;5120895;28;20453;-75
2022/06/19 00:56:49;;;;;;;3.03;2.73;;;;;;;20.66;68.45;99635.63;5120122;28;20554;-75
2022/06/19 00:59:16;;;;;;;3.20;2.87;;;;;;;20.75;67.91;99638.88;5120449;28;20446;-74
2022/06/19 01:01:43;;;;;;;6.63;2.77;;;;;;;20.83;67.66;99646.75;5120335;28;20513;-72
2022/06/19 01:04:14;;;;;;;3.23;2.70;;;;;;;20.81;67.12;99642.59;5120473;28;20454;-73
2022/06/19 01:06:41;;;;;;;3.50;3.20;;;;;;;20.19;68.74;99637.81;5120216;28;20496;-74
2022/06/19 01:09:07;;;;;;;3.90;2.70;;;;;;;20.54;68.05;99631.94;5121111;28;20414;-73
2022/06/19 01:11:38;;;;;;;2.63;2.40;;;;;;;20.55;67.92;99632.75;5119829;28;20499;-73
2022/06/19 01:14:07;;;;;;;2.70;2.50;;;;;;;20.73;67.04;99623.84;5119457;28;20537;-75
2022/06/19 01:16:35;;;;;;;3.20;2.30;;;;;;;20.60;67.61;99619.34;5119719;28;20469;-76
2022/06/19 01:19:01;;;;;;;4.17;3.60;;;;;;;20.46;67.69;99618.63;5120937;28;20503;-75
2022/06/19 01:21:32;;;;;;;4.13;3.00;;;;;;;20.37;68.34;99606.38;5120177;28;20501;-75
2022/06/19 01:24:04;;;;;;;4.53;2.90;;;;;;;20.32;68.70;99596.16;5120443;28;20470;-75
2022/06/19 01:26:37;;;;;;;7.43;3.57;;;;;;;20.09;69.12;99589.44;5120283;28;20497;-76
2022/06/19 01:29:03;;;;;;;3.80;3.33;;;;;;;20.02;69.41;99591.38;5119932;28;20450;-74
2022/06/19 01:31:31;;;;;;;3.10;2.80;;;;;;;20.07;69.62;99586.13;5120492;28;20946;-75
2022/06/19 01:34:01;;;;;;;3.87;3.33;;;;;;;20.16;69.56;99597.53;5120448;28;20209;-76
2022/06/19 01:36:28;;;;;;;4.10;3.20;;;;;;;20.11;69.65;99587.31;5119860;28;20474;-72
2022/06/19 01:38:55;;;;;;;5.37;2.97;;;;;;;20.19;69.27;99580.81;5121053;28;20484;-73
2022/06/19 01:41:25;;;;;;;3.30;2.67;;;;;;;20.23;68.77;99567.63;5120126;28;20478;-72
2022/06/19 01:43:53;;;;;;;2.97;2.70;;;;;;;20.22;69.19;99561.34;5119796;28;20446;-71
2022/06/19 01:46:20;;;;;;;7.17;3.13;;;;;;;20.22;69.13;99574.09;5119325;28;20518;-73
2022/06/19 01:48:47;;;;;;;3.67;3.00;;;;;;;20.26;68.79;99559.06;5120050;28;20450;-73
2022/06/19 01:51:14;;;;;;;7.00;3.13;;;;;;;19.73;70.76;99557.50;5119818;28;20474;-74
2022/06/19 01:53:42;;;;;;;3.90;3.53;;;;;;;19.91;69.86;99556.78;5120276;28;20506;-74
2022/06/19 01:56:11;;;;;;;5.20;3.27;;;;;;;19.99;69.58;99548.38;5119872;28;20497;-71
2022/06/19 01:58:40;;;;;;;4.03;3.00;;;;;;;20.15;69.06;99551.63;5119623;28;20454;-72
2022/06/19 02:01:09;;;;;;;3.97;2.93;;;;;;;19.92;69.54;99558.44;5120200;28;20470;-73
2022/06/19 02:03:38;;;;;;;3.00;2.80;;;;;;;19.89;69.81;99538.03;5120707;28;20446;-71
2022/06/19 02:06:06;;;;;;;5.60;3.20;;;;;;;19.87;69.55;99569.94;5120032;28;20493;-73
2022/06/19 02:08:34;;;;;;;4.40;3.50;;;;;;;19.29;71.54;99551.88;5124128;28;20478;-71
2022/06/19 02:11:01;;;;;;;4.93;2.87;;;;;;;19.55;71.07;99569.91;5123072;28;20513;-71
2022/06/19 02:13:29;;;;;;;3.27;2.87;;;;;;;19.54;71.21;99553.84;5123242;28;20446;-73
2022/06/19 02:15:56;;;;;;;5.80;3.30;;;;;;;19.78;70.53;99565.84;5123016;28;20496;-74
2022/06/19 02:18:26;;;;;;;4.87;3.57;;;;;;;19.60;70.68;99558.41;5123683;28;20438;-72
2022/06/19 02:20:53;;;;;;;4.53;3.17;;;;;;;19.69;70.35;99548.97;5123607;28;20533;-72
2022/06/19 02:23:21;;;;;;;4.67;3.20;;;;;;;19.48;71.03;99557.44;5123640;28;20449;-70
2022/06/19 02:25:49;;;;;;;3.63;2.70;;;;;;;19.47;70.87;99555.75;5123538;28;20612;-70
2022/06/19 02:28:16;;;;;;;3.50;3.20;;;;;;;19.53;70.71;99553.03;5123050;28;20479;-73
2022/06/19 02:30:42;;;;;;;4.00;2.93;;;;;;;19.35;71.01;99547.47;5123399;28;20473;-73
2022/06/19 02:33:13;;;;;;;3.83;2.80;;;;;;;19.45;70.61;99549.72;5123644;28;21020;-73
2022/06/19 02:35:41;;;;;;;3.03;2.77;;;;;;;19.54;70.27;99545.72;5123031;28;20498;-71
2022/06/19 02:38:08;;;;;;;3.50;3.20;;;;;;;19.32;70.84;99531.63;5123408;28;20466;-74
2022/06/19 02:40:39;;;;;;;6.73;3.00;;;;;;;19.26;71.16;99522.47;5123088;28;20490;-74
2022/06/19 02:43:09;;;;;;;5.00;3.30;;;;;;;19.42;70.48;99525.75;5122400;28;20482;-73
2022/06/19 02:45:38;;;;;;;2.90;2.70;;;;;;;19.30;70.68;99533.72;5121343;28;20465;-73
2022/06/19 02:48:05;;;;;;;4.33;3.00;;;;;;;18.94;71.58;99544.06;5123261;28;20442;-74
2022/06/19 02:50:34;;;;;;;4.93;2.73;;;;;;;19.00;71.44;99531.53;5122955;28;20469;-73
2022/06/19 02:53:03;;;;;;;2.90;2.60;;;;;;;18.92;71.32;99537.19;5122642;28;20640;-70
2022/06/19 02:55:30;;;;;;;3.40;3.03;;;;;;;18.92;71.29;99531.78;5122311;28;20454;-71
2022/06/19 02:57:56;;;;;;;5.20;2.90;;;;;;;19.04;71.18;99546.31;5123468;28;20458;-73
2022/06/19 03:00:25;;;;;;;3.63;3.03;;;;;;;19.02;71.14;99532.16;5122285;28;20442;-73
2022/06/19 03:02:54;;;;;;;3.43;3.10;;;;;;;18.54;72.61;99519.75;5122786;28;20462;-73
2022/06/19 03:05:23;;;;;;;3.27;2.87;;;;;;;18.83;71.39;99535.75;5122324;28;21004;-73
2022/06/19 03:07:50;;;;;;;4.77;2.97;;;;;;;18.50;71.59;99507.66;5122700;28;20482;-73
2022/06/19 03:10:18;;;;;;;3.90;2.80;;;;;;;18.59;71.99;99502.88;5122062;28;21160;-71
2022/06/19 03:12:45;;;;;;;3.40;3.10;;;;;;;18.29;72.47;99514.16;5123094;28;20466;-72
2022/06/19 03:15:12;;;;;;;4.30;2.97;;;;;;;18.27;72.72;99470.25;5121210;28;20450;-68
2022/06/19 03:17:39;;;;;;;6.20;3.03;;;;;;;18.37;72.37;99480.66;5122800;28;20467;-73
2022/06/19 03:20:08;;;;;;;3.47;2.60;;;;;;;18.24;72.70;99489.59;5121750;28;20453;-70
2022/06/19 03:22:34;;;;;;;7.60;3.10;;;;;;;18.34;72.65;99452.13;5122718;28;20466;-73
2022/06/19 03:25:01;;;;;;;5.10;3.90;;;;;;;18.41;71.71;99466.47;5102363;28;20480;-73
2022/06/19 03:27:29;;;;;;;2.80;2.50;;;;;;;18.62;71.01;99454.53;5101402;28;20482;-74
2022/06/19 03:29:56;;;;;;;4.33;2.80;;;;;;;18.61;71.61;99454.78;5121276;28;20467;-74
2022/06/19 03:32:23;;;;;;;3.90;2.83;;;;;;;18.63;70.76;99460.81;5121860;28;20511;-73
2022/06/19 03:34:49;;;;;;;4.70;2.77;;;;;;;18.57;71.24;99446.22;5121956;28;20489;-74
2022/06/19 03:37:16;;;;;;;5.40;3.30;;;;;;;18.88;70.73;99443.88;5121403;28;20538;-75
2022/06/19 03:39:43;;;;;;;6.60;2.80;;;;;;;19.08;69.30;99449.19;5122382;28;20442;-76
2022/06/19 03:42:11;;;;;;;5.93;2.83;;;;;;;19.10;69.09;99445.22;5121539;28;20498;-74
2022/06/19 03:44:39;;;;;;;3.60;2.67;;;;;;;19.38;67.92;99476.56;5121466;28;20446;-75
2022/06/19 03:47:07;;;;;;;3.50;2.50;;;;;;;19.42;67.66;99483.19;5120448;28;20481;-71
2022/06/19 03:49:33;;;;;;;3.27;2.40;;;;;;;19.21;68.08;99486.25;5122223;28;20450;-74
2022/06/19 03:52:00;;;;;;;2.77;2.00;;;;;;;19.25;67.53;99490.19;5121383;28;20501;-75
2022/06/19 03:54:27;;;;;;;3.60;2.17;;;;;;;19.29;67.40;99486.84;5121544;28;20446;-75
2022/06/19 03:56:54;;;;;;;4.10;2.47;;;;;;;18.92;66.94;99496.56;5121232;28;20556;-74
2022/06/19 03:59:20;;;;;;;6.27;2.33;;;;;;;19.28;65.72;99481.63;5119784;28;20872;-74
2022/06/19 04:01:48;;;;;;;3.70;2.13;;;;;;;19.53;64.56;99460.00;5121419;28;21037;-78
2022/06/19 04:04:15;;;;;;;5.83;1.97;;;;;;;18.85;65.88;99433.47;5121789;28;20457;-78
2022/06/19 04:06:43;;;;;;;5.10;2.23;;;;;;;19.63;62.91;99465.75;5112536;28;20462;-78
2022/06/19 04:09:12;;;;;;;3.90;2.10;;;;;;;20.00;60.80;99503.09;5122763;28;20426;-78
2022/06/19 04:11:39;;;;;;;7.10;1.87;;;;;;;20.15;59.47;99502.75;5121122;28;20473;-78
2022/06/19 04:14:05;;;;;;;2.37;1.60;;;;;;;20.38;57.79;99480.41;5120829;28;20449;-76
2022/06/19 04:16:34;;;;;;;3.47;1.77;;;;;;;20.62;56.31;99498.59;5120468;28;20478;-75
2022/06/19 04:19:03;;;;;;;7.33;1.80;;;;;;;20.93;55.17;99495.97;5121556;28;20747;-78
2022/06/19 04:21:33;;;;;;;3.63;1.90;;;;;;;21.55;53.93;99504.81;5120584;28;20493;-74
2022/06/19 04:24:03;;;;;;;5.67;2.20;;;;;;;21.25;53.77;99513.75;5121331;28;20517;-74
2022/06/19 04:26:31;;;;;;;5.10;1.70;;;;;;;21.08;54.27;99517.34;5120601;28;20466;-78
2022/06/19 04:28:58;;;;;;;3.50;1.87;;;;;;;21.51;53.10;99517.22;5120923;28;21270;-78
2022/06/19 04:31:25;;;;;;;6.97;1.80;;;;;;;21.68;52.16;99528.25;5120288;28;20573;-74
2022/06/19 04:33:52;;;;;;;3.63;2.20;;;;;;;21.42;52.42;99518.53;5121427;28;20479;-76
2022/06/19 04:36:24;;;;;;;4.23;1.87;;;;;;;21.20;52.25;99524.47;5119990;28;20847;-78
2022/06/19 04:38:54;;;;;;;5.20;2.20;;;;;;;20.70;53.40;99532.78;5121463;28;20448;-77
2022/06/19 04:41:22;;;;;;;7.60;2.00;;;;;;;21.37;52.34;99538.28;5120187;28;20466;-75
2022/06/19 04:43:50;;;;;;;6.30;2.20;;;;;;;21.77;50.81;99543.22;5120431;28;20489;-78
2022/06/19 04:46:18;;;;;;;9.40;2.37;;;;;;;20.98;53.29;99547.75;5119456;28;20535;-79
2022/06/19 04:48:45;;;;;;;6.30;2.40;;;;;;;21.37;51.68;99570.06;5121602;28;20498;-75
2022/06/19 04:51:13;;;;;;;8.63;2.97;;;;;;;21.69;50.22;99581.63;5120283;28;20470;-73
2022/06/19 04:53:41;;;;;;;6.27;2.63;;;;;;;20.97;52.48;99578.69;5120914;28;20454;-73
2022/06/19 04:56:08;;;;;;;11.87;3.17;;;;;;;21.50;50.75;99580.00;5120245;28;20499;-74
2022/06/19 04:58:35;;;;;;;10.00;2.77;;;;;;;21.69;49.63;99570.72;5120274;28;20501;-74
2022/06/19 05:01:05;;;;;;;11.53;2.87;;;;;;;22.07;49.47;99568.75;5120542;28;20496;-71
2022/06/19 05:03:31;;;;;;;11.97;3.37;;;;;;;21.71;48.70;99563.16;5120839;28;20438;-71
2022/06/19 05:05:58;;;;;;;10.93;2.93;;;;;;;22.47;47.40;99552.59;5120442;28;20552;-73
2022/06/19 05:08:25;;;;;;;15.13;2.90;;;;;;;22.85;46.16;99550.47;5121259;28;20498;-72
2022/06/19 05:10:53;;;;;;;9.90;3.07;;;;;;;22.33;47.17;99564.81;5119945;28;20461;-73
2022/06/19 05:13:21;;;;;;;10.43;3.70;;;;;;;21.93;48.21;99573.56;5120248;28;20510;-71
2022/06/19 05:15:48;;;;;;;13.53;3.00;;;;;;;22.02;48.22;99574.88;5119958;28;20485;-69
2022/06/19 05:18:16;;;;;;;12.30;3.23;;;;;;;22.45;46.96;99602.94;5120876;28;20464;-71
2022/06/19 05:20:43;;;;;;;9.30;2.90;;;;;;;22.25;47.01;99609.50;5111762;28;20502;-69
2022/06/19 05:23:10;;;;;;;11.40;3.10;;;;;;;21.51;48.10;99615.13;5120753;28;20434;-74
2022/06/19 05:25:38;;;;;;;10.60;3.37;;;;;;;20.55;51.38;99603.69;5119983;28;20474;-71
2022/06/19 05:28:06;;;;;;;10.83;3.70;;;;;;;22.16;47.79;99622.59;5120134;28;20469;-71
2022/06/19 05:30:33;;;;;;;20.80;3.80;;;;;;;22.09;46.62;99596.56;5119347;28;20458;-71
2022/06/19 05:32:59;;;;;;;7.73;2.90;;;;;;;22.03;47.01;99603.75;5120233;28;20461;-69
2022/06/19 05:35:26;;;;;;;11.37;3.10;;;;;;;22.21;45.79;99618.38;5120098;28;20476;-70
2022/06/19 05:37:53;;;;;;;9.40;2.77;;;;;;;22.63;44.84;99651.88;5120415;28;20442;-70
2022/06/19 05:40:19;;;;;;;8.33;2.57;;;;;;;23.04;43.19;99641.97;5120515;28;20454;-68
2022/06/19 05:42:47;;;;;;;9.97;3.13;;;;;;;21.23;46.29;99616.47;5123133;28;20474;-70
2022/06/19 05:45:15;;;;;;;10.27;3.33;;;;;;;19.67;49.12;99593.59;5123063;28;20452;-69
2022/06/19 05:47:42;;;;;;;14.13;3.20;;;;;;;20.55;47.91;99608.31;5119904;28;20478;-70
2022/06/19 05:50:10;;;;;;;13.30;2.93;;;;;;;22.55;42.49;99642.16;5099376;28;20458;-70
2022/06/19 05:52:37;;;;;;;8.53;2.27;;;;;;;22.71;43.12;99637.91;5111133;28;20497;-68
2022/06/19 05:55:05;;;;;;;8.63;2.50;;;;;;;23.07;42.32;99625.16;5124416;28;20462;-69
2022/06/19 05:57:32;;;;;;;10.60;2.93;;;;;;;23.18;41.78;99628.94;5123472;28;20476;-69
2022/06/19 05:59:58;;;;;;;9.73;3.20;;;;;;;;;;5122829;28;20454;-69
2022/06/19 06:02:26;;;;;;;8.83;2.77;;;;;;;21.11;45.26;99593.81;5122919;28;22167;-70
2022/06/19 06:04:53;;;;;;;6.50;2.77;;;;;;;20.84;45.09;99587.81;5123691;28;20450;-68
2022/06/19 06:07:20;;;;;;;8.17;2.23;;;;;;;21.73;44.39;99582.00;5122795;28;20493;-70
2022/06/19 06:09:46;;;;;;;8.97;2.73;;;;;;;22.39;43.26;99588.34;5124264;28;20466;-70
2022/06/19 06:12:13;;;;;;;11.00;2.57;;;;;;;22.46;42.01;99582.81;5123260;28;20592;-72
2022/06/19 06:14:40;;;;;;;5.87;2.00;;;;;;;23.68;38.84;99597.53;5122372;28;20489;-69
2022/06/19 06:17:06;;;;;;;8.00;2.47;;;;;;;23.26;39.93;99622.28;5121971;28;20572;-68
2022/06/19 06:19:35;;;;;;;7.70;2.40;;;;;;;22.26;41.98;99622.06;5123292;28;20438;-71
2022/06/19 06:22:03;;;;;;;11.00;2.47;;;;;;;21.78;43.17;99593.00;5122910;28;20476;-70
2022/06/19 06:24:30;;;;;;;5.80;2.37;;;;;;;22.83;40.48;99590.75;5122924;28;20465;-70
2022/06/19 06:26:57;;;;;;;10.57;3.27;;;;;;;22.78;41.06;99582.47;5121829;28;21046;-70
2022/06/19 06:29:24;;;;;;;12.50;2.87;;;;;;;21.53;42.46;99588.53;5123038;28;20481;-71
2022/06/19 06:31:51;;;;;;;9.60;2.80;;;;;;;23.46;39.47;99592.72;5122177;28;20499;-69
2022/06/19 06:34:18;;;;;;;11.03;2.37;;;;;;;23.76;37.88;99599.03;5121592;28;20482;-69
2022/06/19 06:36:46;;;;;;;11.20;2.93;;;;;;;22.50;40.82;99590.28;5122225;28;20477;-70
2022/06/19 06:39:13;;;;;;;9.10;1.90;;;;;;;25.26;36.24;99611.38;5122959;28;20431;-70
2022/06/19 06:41:39;;;;;;;7.00;2.33;;;;;;;24.49;37.14;99618.38;5122333;28;20494;-71
2022/06/19 06:44:06;;;;;;;10.30;2.70;;;;;;;24.73;35.86;99617.16;5114096;27;20474;-71
2022/06/19 06:46:33;;;;;;;7.60;1.83;;;;;;;23.17;39.18;99623.72;5114284;27;20841;-70
2022/06/19 06:49:02;;;;;;;8.30;2.33;;;;;;;22.44;40.22;99617.63;5109873;28;20485;-69
2022/06/19 06:51:29;;;;;;;6.67;2.20;;;;;;;23.22;39.47;99570.13;5122705;28;20466;-71
2022/06/19 06:53:58;;;;;;;8.13;2.53;;;;;;;24.10;37.26;99601.88;5117882;28;20485;-69
2022/06/19 06:56:24;;;;;;;7.60;2.27;;;;;;;24.38;37.26;99573.69;5120333;28;20473;-69
2022/06/19 06:58:51;;;;;;;8.67;3.23;;;;;;;24.43;36.26;99569.09;5110750;28;21393;-70
2022/06/19 07:01:20;;;;;;;8.80;2.70;;;;;;;24.87;36.02;99581.28;5113708;28;20489;-70
2022/06/19 07:03:52;;;;;;;3.57;2.03;;;;;;;24.83;35.45;99585.59;5118480;27;20452;-70
2022/06/19 07:06:18;;;;;;;6.87;2.33;;;;;;;23.36;38.88;99570.69;5118832;28;20537;-70
2022/06/19 07:08:45;;;;;;;7.73;1.90;;;;;;;23.24;38.90;99546.16;5112654;28;21007;-71
2022/06/19 07:11:16;;;;;;;6.17;2.43;;;;;;;25.37;35.64;99575.69;5115225;28;20702;-70
2022/06/19 07:13:43;;;;;;;6.73;2.70;;;;;;;25.05;35.76;99559.13;5119770;28;20960;-70
2022/06/19 07:16:09;;;;;;;8.53;2.13;;;;;;;25.09;35.87;99567.66;5112558;28;20481;-70
2022/06/19 07:18:36;;;;;;;10.03;2.53;;;;;;;25.31;34.53;99537.56;5113607;28;20449;-68
2022/06/19 07:21:03;;;;;;;10.90;2.20;;;;;;;25.37;35.21;99540.13;5106826;28;20498;-70
2022/06/19 07:23:30;;;;;;;5.17;2.27;;;;;;;25.87;34.49;99543.66;5112884;27;20741;-70
2022/06/19 07:25:56;;;;;;;4.13;2.00;;;;;;;25.40;35.02;99527.00;5120487;28;20470;-70
2022/06/19 07:28:24;;;;;;;7.57;2.63;;;;;;;25.36;35.24;99522.06;5111036;27;20443;-70
2022/06/19 07:30:52;;;;;;;10.27;2.40;;;;;;;25.26;35.06;99507.41;5119445;27;20466;-69
2022/06/19 07:33:20;;;;;;;10.10;2.80;;;;;;;25.68;34.70;99504.88;5126312;27;20466;-70
2022/06/19 07:35:47;;;;;;;10.10;2.60;;;;;;;25.28;35.54;99514.28;5120635;27;20462;-67
2022/06/19 07:38:14;;;;;;;5.53;2.07;;;;;;;25.21;35.53;99516.38;5110173;28;20518;-68
2022/06/19 07:40:40;;;;;;;10.43;2.97;;;;;;;26.91;34.26;99517.88;5115086;27;20473;-74
2022/06/19 07:43:07;;;;;;;10.13;2.60;;;;;;;27.73;31.49;99530.00;5112929;27;20516;-72
2022/06/19 07:45:35;;;;;;;9.17;2.20;;;;;;;27.58;32.41;99558.25;5117847;27;20482;-74
2022/06/19 07:50:48;;;;;;;9.80;2.90;;;;;;;29.63;28.67;99620.63;5119973;28;20480;-75
2022/06/19 07:53:15;;;;;;;6.53;2.43;;;;;;;27.93;31.15;99619.06;5121008;28;20560;-75
2022/06/19 07:55:41;;;;;;;9.73;2.77;;;;;;;28.72;29.73;99616.97;5120200;28;20470;-68
2022/06/19 07:58:08;;;;;;;6.80;2.23;;;;;;;29.44;28.82;99622.34;5120291;28;21163;-75
2022/06/19 08:00:37;;;;;;;7.80;2.63;;;;;;;27.77;31.32;99608.00;5120104;28;20493;-70
2022/06/19 08:03:05;;;;;;;10.23;2.50;;;;;;;27.11;32.50;99621.44;5120026;28;20474;-75
2022/06/19 08:05:35;;;;;;;6.93;2.57;;;;;;;26.93;32.34;99639.97;5118945;28;20514;-74
2022/06/19 08:08:04;;;;;;;6.43;2.23;;;;;;;28.25;30.44;99634.53;5120254;28;20711;-72
2022/06/19 08:10:33;;;;;;;6.67;2.23;;;;;;;26.43;32.53;99639.28;5120717;28;20474;-75
2022/06/19 08:12:59;;;;;;;7.87;2.43;;;;;;;25.38;34.43;99628.53;5120257;28;20474;-75
2022/06/19 08:15:27;;;;;;;5.90;2.40;;;;;;;24.76;35.09;99626.78;5126343;27;26344;-71
2022/06/19 08:17:55;;;;;;;7.37;2.33;;;;;;;25.13;34.97;99631.69;5138788;27;20452;-73
2022/06/19 08:20:23;;;;;;;4.80;1.33;;;;;;;28.38;29.60;99644.16;5120172;28;20441;-75
2022/06/19 08:22:50;;;;;;;4.60;2.00;;;;;;;29.05;28.75;99665.09;5120882;28;20438;-74
2022/06/19 08:25:18;;;;;;;7.60;2.20;;;;;;;28.87;28.55;99674.75;5120116;28;20495;-75
2022/06/19 08:27:48;;;;;;;8.60;2.30;;;;;;;28.67;28.49;99672.00;5119800;28;20453;-74
2022/06/19 08:30:18;;;;;;;6.50;2.00;;;;;;;29.25;28.08;99683.53;5119480;28;20460;-73
2022/06/19 08:32:44;;;;;;;10.03;2.43;;;;;;;29.27;27.78;99700.59;5095490;28;20502;-73
2022/06/19 08:35:12;;;;;;;6.83;1.90;;;;;;;29.95;27.07;99713.06;5119090;28;20481;-73
2022/06/19 08:37:39;;;;;;;5.97;2.23;;;;;;;30.25;26.25;99718.72;5120038;28;20461;-74
2022/06/19 08:40:13;;;;;;;7.43;2.90;;;;;;;31.01;26.57;99755.22;5119667;27;20473;-69
2022/06/19 08:42:50;;;;;;;6.63;2.47;;;;;;;30.95;25.35;99780.13;5116840;27;20481;-74
2022/06/19 08:45:30;;;;;;;8.63;2.00;;;;;;;30.45;25.94;99784.00;5127032;27;20465;-75
2022/06/19 08:48:17;;;;;;;4.00;1.80;;;;;;;30.14;27.03;99793.22;5133277;27;20789;-75
2022/06/19 08:50:51;;;;;;;12.20;3.10;;;;;;;28.27;28.98;99828.34;5118721;28;20773;-71
2022/06/19 08:53:36;;;;;;;7.93;2.00;;;;;;;27.73;30.04;99823.06;5119857;28;20542;-75
2022/06/19 08:56:12;;;;;;;7.70;2.47;;;;;;;28.30;29.65;99822.31;5121266;28;20485;-74
2022/06/19 08:58:45;;;;;;;5.40;2.00;;;;;;;29.87;27.50;99807.34;5104287;28;20482;-74
2022/06/19 09:01:21;;;;;;;10.67;2.60;;;;;;;30.35;27.30;99793.97;5114507;28;20466;-74
2022/06/19 09:06:44;;;;;;;5.00;1.80;;;;;;;28.88;29.70;99797.44;5115795;28;20572;-74
2022/06/19 09:09:25;;;;;;;10.50;2.20;;;;;;;26.44;33.49;99805.41;5112354;28;20434;-78
2022/06/19 09:12:03;;;;;;;9.53;2.33;;;;;;;26.73;33.15;99807.09;5124483;28;20470;-80
2022/06/19 09:14:36;;;;;;;10.10;2.27;;;;;;;27.15;32.16;99814.63;5114979;28;20483;-78
2022/06/19 09:17:09;;;;;;;5.07;1.73;;;;;;;27.48;32.99;99804.50;5106068;27;20475;-76
2022/06/19 09:19:48;;;;;;;7.20;2.50;;;;;;;27.90;32.60;99798.19;5121255;28;20479;-77
2022/06/19 09:22:31;;;;;;;8.10;2.50;;;;;;;28.31;31.23;99810.19;5113217;27;20475;-76
2022/06/19 09:25:10;;;;;;;8.33;2.53;;;;;;;29.94;28.99;99805.13;5117912;28;20945;-82
2022/06/19 09:27:43;;;;;;;8.00;2.63;;;;;;;28.31;31.71;99807.44;5121649;28;20454;-77
2022/06/19 09:30:13;;;;;;;6.60;2.30;;;;;;;29.62;29.32;99817.31;5122353;28;20438;-74
2022/06/19 09:32:45;;;;;;;5.80;2.23;;;;;;;29.94;28.66;99807.88;5122651;28;20738;-76
2022/06/19 09:35:15;;;;;;;4.77;2.03;;;;;;;30.44;28.93;99818.22;5103038;28;20443;-79
2022/06/19 09:37:47;;;;;;;6.10;2.33;;;;;;;30.53;28.20;99817.31;5112258;27;20499;-74
2022/06/19 09:40:18;;;;;;;10.30;3.00;;;;;;;31.19;27.51;99828.25;5124347;27;20480;-75
2022/06/19 09:42:47;;;;;;;10.10;2.33;;;;;;;30.91;27.24;99836.97;5114310;28;20470;-76
2022/06/19 09:45:17;;;;;;;7.93;2.20;;;;;;;29.93;29.14;99832.97;5120019;28;20458;-74
2022/06/19 09:47:48;;;;;;;7.47;2.23;;;;;;;30.91;27.59;99852.72;5135217;27;20477;-73
2022/06/19 09:50:19;;;;;;;6.03;2.20;;;;;;;30.49;27.81;99840.25;5117604;27;20451;-77
2022/06/19 09:52:50;;;;;;;9.33;2.30;;;;;;;29.84;28.86;99835.47;5101782;28;20505;-79
2022/06/19 09:55:19;;;;;;;8.20;2.60;;;;;;;30.60;28.67;99842.66;5112339;28;20454;-72
2022/06/19 09:57:52;;;;;;;9.90;2.87;;;;;;;30.96;27.42;99838.91;5123853;28;20450;-74
2022/06/19 10:00:23;;;;;;;9.93;2.63;;;;;;;29.61;30.74;99843.19;5117751;27;20458;-74
2022/06/19 10:02:54;;;;;;;7.50;3.00;;;;;;;29.10;30.70;99845.94;5122274;28;20522;-74
2022/06/19 10:05:29;;;;;;;6.53;2.47;;;;;;;30.78;27.96;99846.72;5121525;28;20442;-74
2022/06/19 10:08:01;;;;;;;7.13;2.80;;;;;;;30.90;28.72;99837.25;5122123;28;20445;-74
2022/06/19 10:10:33;;;;;;;6.00;2.63;;;;;;;30.91;28.25;99842.47;5122588;28;20457;-75
2022/06/19 10:13:07;;;;;;;8.17;2.87;;;;;;;31.27;27.94;99833.97;5122775;28;20929;-74
2022/06/19 10:15:37;;;;;;;5.83;2.30;;;;;;;27.85;32.27;99839.38;5120282;28;20462;-74
2022/06/19 10:18:08;;;;;;;12.50;2.73;;;;;;;30.09;29.64;99822.75;5111657;27;20954;-74
2022/06/19 10:20:42;;;;;;;10.83;2.30;;;;;;;29.97;30.26;99807.31;5139972;27;20520;-74
2022/06/19 10:23:17;;;;;;;7.87;2.00;;;;;;;30.13;29.74;99823.81;5106871;27;20443;-73
2022/06/19 10:25:49;;;;;;;6.70;2.70;;;;;;;29.68;30.89;99801.59;5101538;28;20485;-72
2022/06/19 10:28:43;;;;;;;8.53;2.53;;;;;;;29.06;30.48;99776.00;5115816;28;20454;-73
2022/06/19 10:31:16;;;;;;;6.13;2.47;;;;;;;29.43;30.55;99766.66;5078808;28;20521;-74
2022/06/19 10:33:50;;;;;;;5.10;2.10;;;;;;;27.27;33.53;99773.28;5122206;28;20474;-73
2022/06/19 10:36:21;;;;;;;8.97;2.20;;;;;;;28.04;33.78;99766.41;5121392;28;20470;-61
2022/06/19 10:39:01;;;;;;;8.97;2.40;;;;;;;28.41;32.87;99770.09;5122260;28;20503;-63
2022/06/19 10:44:26;;;;;;;7.80;2.43;;;;;;;26.25;35.70;99760.25;5116738;28;20883;-61
2022/06/19 10:47:03;;;;;;;7.20;2.50;;;;;;;25.03;37.72;99741.75;5121476;28;20478;-61
2022/06/19 10:49:37;;;;;;;7.70;2.13;;;;;;;24.22;38.74;99722.81;5115605;28;20919;-60
2022/06/19 10:52:09;;;;;;;4.27;1.70;;;;;;;25.77;36.11;99713.31;5120802;28;20602;-60
2022/06/19 10:54:59;;;;;;;5.40;2.10;;;;;;;26.59;34.90;99706.03;5121956;28;20557;-62
2022/06/19 10:57:35;;;;;;;4.73;2.00;;;;;;;25.58;36.20;99688.16;5104776;28;20481;-61
2022/06/19 11:00:01;;;;;;;5.67;1.90;;;;;;;24.24;38.19;99701.56;5121660;28;20478;-61
2022/06/19 11:05:20;;;;;;;8.10;2.53;;;;;;;25.81;35.33;99689.81;5121192;28;20898;-61
2022/06/19 11:07:49;;;;;;;9.23;2.23;;;;;;;26.02;36.58;99674.50;5121763;28;20449;-59
2022/06/19 11:10:28;;;;;;;12.73;2.77;;;;;;;24.34;38.68;99688.09;5120173;28;20453;-59
2022/06/19 11:13:03;;;;;;;10.33;2.73;;;;;;;25.46;38.04;99693.75;5121379;28;20438;-60
2022/06/19 11:15:33;;;;;;;7.27;2.40;;;;;;;25.04;38.01;99688.72;5116938;28;20465;-59
2022/06/19 11:18:16;;;;;;;7.07;2.47;;;;;;;26.62;36.08;99688.28;5114009;28;20447;-60
2022/06/19 11:20:55;;;;;;;5.50;2.30;;;;;;;26.97;36.03;99687.72;5107270;27;20470;-61
2022/06/19 11:23:25;;;;;;;9.33;2.20;;;;;;;27.47;34.71;99702.09;5135202;27;20457;-61
2022/06/19 11:26:00;;;;;;;13.27;2.40;;;;;;;27.72;32.75;99695.88;5120626;28;20489;-61
2022/06/19 11:28:43;;;;;;;7.40;2.20;;;;;;;27.05;35.04;99683.69;5120646;28;20561;-60
2022/06/19 11:31:12;;;;;;;4.57;2.20;;;;;;;26.77;34.75;99709.50;5121277;28;20699;-60
2022/06/19 11:33:39;;;;;;;5.53;1.90;;;;;;;26.78;34.99;99713.91;5120750;28;20908;-61
2022/06/19 11:36:08;;;;;;;7.73;2.50;;;;;;;26.21;34.94;99716.06;5120635;28;20480;-61
2022/06/19 11:38:37;;;;;;;7.30;2.23;;;;;;;26.25;36.38;99709.00;5116411;27;20475;-59
2022/06/19 11:41:16;;;;;;;8.87;2.43;;;;;;;26.49;35.18;99725.13;5136082;27;20480;-62
2022/06/19 11:43:43;;;;;;;10.73;2.40;;;;;;;26.20;35.79;99722.63;5113725;28;20473;-62
2022/06/19 11:46:19;;;;;;;8.53;3.43;;;;;;;26.04;37.66;99734.50;5118720;28;20477;-62
2022/06/19 11:48:46;;;;;;;5.73;2.50;;;;;;;25.38;37.64;99699.69;5122089;28;20450;-62
2022/06/19 11:51:17;;;;;;;7.40;2.93;;;;;;;25.66;37.86;99685.00;5121424;28;20477;-62